Time;durP1;ratioP1;P1;durP2;ratioP2;P2;SDS_P1;SDS_P2;PMS_P1;PMS_P2;Temp;Humidity;BMP_temperature;BMP_pressure;BME280_temperature;BME280_humidity;BME280_pressure;Samples;Min_cycle;Max_cycle;Signal;HPM_P1;HPM_P2
2024/03/13 00:00:16;;;;;;;;;;;8.60;99.90;;;;;;2068472;28;19917;-79
2024/03/13 00:01:21;;;;;;;;;;;8.60;99.90;;;;;;2069330;28;19921;-78
2024/03/13 00:02:21;;;;;;;;;;;8.50;99.90;;;;;;2069394;28;20014;-79
2024/03/13 00:03:22;;;;;;;;;;;8.50;99.90;;;;;;2069512;28;19952;-78
2024/03/13 00:04:22;;;;;;;;;;;8.60;99.90;;;;;;2069116;28;20315;-77
2024/03/13 00:05:23;;;;;;;;;;;8.60;99.90;;;;;;2068616;28;19921;-78
2024/03/13 00:06:23;;;;;;;;;;;8.60;99.90;;;;;;2068785;28;19932;-79
2024/03/13 00:07:24;;;;;;;;;;;8.60;99.90;;;;;;2069118;28;19988;-77
2024/03/13 00:08:26;;;;;;;;;;;8.60;99.90;;;;;;2069276;28;20338;-77
2024/03/13 00:09:27;;;;;;;;;;;8.60;99.90;;;;;;2069339;28;19987;-77
2024/03/13 00:10:27;;;;;;;;;;;8.60;99.90;;;;;;2068449;28;19929;-77
2024/03/13 00:11:28;;;;;;;;;;;8.60;99.90;;;;;;2068708;28;19921;-77
2024/03/13 00:12:32;;;;;;;;;;;8.60;99.90;;;;;;2069303;28;19921;-77
2024/03/13 00:13:32;;;;;;;;;;;8.60;99.90;;;;;;2068624;28;19925;-78
2024/03/13 00:14:33;;;;;;;;;;;8.60;99.90;;;;;;2072053;28;19925;-78
2024/03/13 00:15:33;;;;;;;;;;;8.60;99.90;;;;;;2069598;28;20482;-78
2024/03/13 00:16:34;;;;;;;;;;;8.60;99.90;;;;;;2068331;28;20395;-78
2024/03/13 00:17:34;;;;;;;;;;;8.60;99.90;;;;;;2068918;28;20069;-78
2024/03/13 00:18:37;;;;;;;;;;;8.50;99.90;;;;;;2069221;28;20552;-78
2024/03/13 00:19:37;;;;;;;;;;;8.50;99.90;;;;;;2069739;28;19971;-78
2024/03/13 00:20:38;;;;;;;;;;;8.50;99.90;;;;;;2068442;28;19918;-78
2024/03/13 00:21:40;;;;;;;;;;;8.50;99.90;;;;;;2068936;28;19918;-78
2024/03/13 00:22:40;;;;;;;;;;;8.40;99.90;;;;;;2068971;28;19928;-78
2024/03/13 00:23:41;;;;;;;;;;;8.40;99.90;;;;;;2069075;28;19921;-78
2024/03/13 00:24:42;;;;;;;;;;;8.40;99.90;;;;;;2069190;28;19930;-78
2024/03/13 00:25:43;;;;;;;;;;;8.40;99.90;;;;;;2065038;28;19921;-77
2024/03/13 00:26:50;;;;;;;;;;;8.40;99.90;;;;;;2069165;28;19918;-77
2024/03/13 00:27:50;;;;;;;;;;;8.40;99.90;;;;;;2069022;28;19917;-78
2024/03/13 00:28:51;;;;;;;;;;;8.40;99.90;;;;;;2068510;28;19917;-79
2024/03/13 00:29:52;;;;;;;;;;;8.40;99.90;;;;;;2068592;28;19917;-78
2024/03/13 00:30:52;;;;;;;;;;;8.40;99.90;;;;;;2068358;28;19925;-79
2024/03/13 00:31:53;;;;;;;;;;;8.40;99.90;;;;;;2060987;28;20353;-78
2024/03/13 00:32:54;;;;;;;;;;;8.40;99.90;;;;;;2066173;28;20396;-78
2024/03/13 00:33:54;;;;;;;;;;;8.40;99.90;;;;;;2069289;28;20371;-81
2024/03/13 00:34:55;;;;;;;;;;;8.40;99.90;;;;;;2069266;28;19967;-82
2024/03/13 00:35:55;;;;;;;;;;;8.40;99.90;;;;;;2069295;28;20403;-81
2024/03/13 00:36:56;;;;;;;;;;;8.40;99.90;;;;;;2068643;28;19965;-83
2024/03/13 00:37:59;;;;;;;;;;;8.50;99.90;;;;;;2068807;28;19964;-82
2024/03/13 00:38:59;;;;;;;;;;;8.50;99.90;;;;;;2069379;28;19951;-81
2024/03/13 00:40:00;;;;;;;;;;;8.40;99.90;;;;;;2073725;28;19924;-78
2024/03/13 00:41:01;;;;;;;;;;;8.40;99.90;;;;;;2068790;28;19925;-77
2024/03/13 00:42:14;;;;;;;;;;;8.50;99.90;;;;;;2069792;28;19925;-78
2024/03/13 00:43:14;;;;;;;;;;;8.40;99.90;;;;;;2068007;28;20367;-78
2024/03/13 00:44:15;;;;;;;;;;;8.40;99.90;;;;;;2060427;28;20024;-79
2024/03/13 00:45:15;;;;;;;;;;;8.30;99.90;;;;;;2060004;28;19975;-77
2024/03/13 00:46:16;;;;;;;;;;;8.30;99.90;;;;;;2068212;28;19952;-78
2024/03/13 00:47:19;;;;;;;;;;;8.30;99.90;;;;;;2068224;28;20449;-76
2024/03/13 00:48:20;;;;;;;;;;;8.20;99.90;;;;;;2064677;28;20004;-78
2024/03/13 00:49:22;;;;;;;;;;;8.20;99.90;;;;;;2060095;28;20096;-79
2024/03/13 00:50:22;;;;;;;;;;;8.20;99.90;;;;;;2052722;28;19925;-78
2024/03/13 00:51:23;;;;;;;;;;;8.20;99.90;;;;;;2063122;28;19918;-78
2024/03/13 00:52:23;;;;;;;;;;;8.10;99.90;;;;;;2063427;28;19969;-76
2024/03/13 00:53:24;;;;;;;;;;;8.10;99.90;;;;;;2052556;28;19957;-78
2024/03/13 00:54:26;;;;;;;;;;;8.10;99.90;;;;;;2053319;28;20149;-78
2024/03/13 00:55:27;;;;;;;;;;;8.10;99.90;;;;;;2069581;28;19955;-78
2024/03/13 00:56:29;;;;;;;;;;;8.10;99.90;;;;;;2078821;28;20007;-79
2024/03/13 00:57:30;;;;;;;;;;;8.10;99.90;;;;;;2068057;28;19980;-78
2024/03/13 00:58:30;;;;;;;;;;;8.10;99.90;;;;;;2068530;28;19945;-79
2024/03/13 00:59:31;;;;;;;;;;;8.10;99.90;;;;;;2068115;28;19910;-76
2024/03/13 01:00:35;;;;;;;;;;;8.20;99.90;;;;;;2064345;28;19979;-76
2024/03/13 01:01:38;;;;;;;;;;;8.20;99.90;;;;;;2068500;28;19960;-76
2024/03/13 01:02:40;;;;;;;;;;;8.30;99.90;;;;;;2063288;28;19920;-76
2024/03/13 01:03:41;;;;;;;;;;;8.30;99.90;;;;;;2045871;28;20010;-75
2024/03/13 01:04:44;;;;;;;;;;;8.30;99.90;;;;;;2052111;28;20586;-76
2024/03/13 01:05:45;;;;;;;;;;;8.30;99.90;;;;;;2060102;28;19922;-76
2024/03/13 01:06:45;;;;;;;;;;;8.30;99.90;;;;;;2067731;28;19968;-77
2024/03/13 01:07:47;;;;;;;;;;;8.30;99.90;;;;;;2067842;28;19914;-77
2024/03/13 01:08:50;;;;;;;;;;;8.30;99.90;;;;;;2067834;28;19944;-77
2024/03/13 01:09:50;;;;;;;;;;;8.30;99.90;;;;;;2060307;28;20012;-76
2024/03/13 01:10:54;;;;;;;;;;;8.20;99.90;;;;;;2055493;28;20708;-77
2024/03/13 01:11:54;;;;;;;;;;;8.20;99.90;;;;;;2064114;28;19960;-77
2024/03/13 01:12:55;;;;;;;;;;;8.20;99.90;;;;;;2068607;28;20295;-77
2024/03/13 01:13:55;;;;;;;;;;;8.10;99.90;;;;;;2068156;28;19975;-77
2024/03/13 01:14:56;;;;;;;;;;;8.10;99.90;;;;;;2068005;28;20323;-77
2024/03/13 01:15:57;;;;;;;;;;;8.10;99.90;;;;;;2069670;28;20324;-77
2024/03/13 01:16:58;;;;;;;;;;;8.10;99.90;;;;;;2066921;28;19917;-76
2024/03/13 01:17:58;;;;;;;;;;;8.10;99.90;;;;;;2060494;28;20396;-77
2024/03/13 01:18:59;;;;;;;;;;;8.10;99.90;;;;;;2060620;28;19914;-77
2024/03/13 01:20:00;;;;;;;;;;;8.10;99.90;;;;;;2068849;28;20320;-77
2024/03/13 01:21:01;;;;;;;;;;;8.10;99.90;;;;;;2069003;28;19917;-76
2024/03/13 01:22:12;;;;;;;;;;;8.20;99.90;;;;;;2060059;28;20447;-79
2024/03/13 01:23:13;;;;;;;;;;;8.20;99.90;;;;;;2061741;28;20478;-79
2024/03/13 01:24:13;;;;;;;;;;;8.20;99.90;;;;;;2067820;28;19949;-78
2024/03/13 01:25:14;;;;;;;;;;;8.30;99.90;;;;;;2057121;28;19949;-78
2024/03/13 01:26:15;;;;;;;;;;;8.20;99.90;;;;;;2046034;28;19918;-78
2024/03/13 01:27:15;;;;;;;;;;;8.20;99.90;;;;;;2068005;28;20013;-78
2024/03/13 01:28:15;;;;;;;;;;;8.20;99.90;;;;;;2059479;28;20302;-77
2024/03/13 01:29:16;;;;;;;;;;;8.20;99.90;;;;;;2053407;28;20458;-77
2024/03/13 01:30:17;;;;;;;;;;;8.20;99.90;;;;;;2067410;28;20024;-78
2024/03/13 01:31:18;;;;;;;;;;;8.20;99.90;;;;;;2056245;28;20380;-77
2024/03/13 01:32:20;;;;;;;;;;;8.20;99.90;;;;;;2060002;28;20479;-78
2024/03/13 01:33:20;;;;;;;;;;;8.30;99.90;;;;;;2059562;28;19967;-78
2024/03/13 01:34:21;;;;;;;;;;;8.30;99.90;;;;;;2059648;28;19918;-78
2024/03/13 01:35:21;;;;;;;;;;;8.30;99.90;;;;;;2067941;28;20379;-78
2024/03/13 01:37:55;;;;;;;;;;;8.30;99.90;;;;;;2067898;28;19922;-78
2024/03/13 01:38:01;;;;;;;;;;;8.30;99.90;;;;;;2058269;28;19918;-78
2024/03/13 01:39:02;;;;;;;;;;;8.30;99.90;;;;;;2055706;28;20810;-77
2024/03/13 01:40:06;;;;;;;;;;;8.30;99.90;;;;;;2059699;28;19917;-78
2024/03/13 01:54:52;;;;;;;;;;;8.30;99.90;;;;;;2065218;28;20414;-86
2024/03/13 01:55:57;;;;;;;;;;;8.30;99.90;;;;;;2063168;28;20412;-84
2024/03/13 01:57:12;;;;;;;;;;;8.20;99.90;;;;;;2068847;28;19921;-86
2024/03/13 01:58:19;;;;;;;;;;;8.20;99.90;;;;;;2068768;28;19941;-84
2024/03/13 01:59:20;;;;;;;;;;;8.20;99.90;;;;;;2073735;28;19914;-85
2024/03/13 02:02:59;;;;;;;;;;;8.20;99.90;;;;;;2069967;28;19981;-85
2024/03/13 02:04:00;;;;;;;;;;;8.30;99.90;;;;;;2069862;28;20403;-85
2024/03/13 02:05:00;;;;;;;;;;;8.20;99.90;;;;;;2070133;28;20011;-84
2024/03/13 02:06:03;;;;;;;;;;;8.20;99.90;;;;;;2065202;28;20191;-83
2024/03/13 02:07:04;;;;;;;;;;;8.20;99.90;;;;;;2063902;28;20382;-85
2024/03/13 02:08:05;;;;;;;;;;;8.20;99.90;;;;;;2068847;28;19918;-85
2024/03/13 02:09:06;;;;;;;;;;;8.20;99.90;;;;;;2069068;28;20407;-84
2024/03/13 02:10:06;;;;;;;;;;;8.20;99.90;;;;;;2065599;28;20055;-81
2024/03/13 02:11:07;;;;;;;;;;;8.20;99.90;;;;;;2069937;28;19918;-85
2024/03/13 02:12:08;;;;;;;;;;;8.20;99.90;;;;;;2071789;28;19917;-86
2024/03/13 02:13:10;;;;;;;;;;;8.20;99.90;;;;;;2072340;28;19939;-85
2024/03/13 02:14:10;;;;;;;;;;;8.20;99.90;;;;;;2074517;28;19953;-85
2024/03/13 02:15:11;;;;;;;;;;;8.20;99.90;;;;;;2075406;28;19921;-85
2024/03/13 02:16:12;;;;;;;;;;;8.20;99.90;;;;;;2075100;28;19914;-86
2024/03/13 02:17:12;;;;;;;;;;;8.20;99.90;;;;;;2073893;28;19917;-83
2024/03/13 02:18:19;;;;;;;;;;;8.20;99.90;;;;;;2065831;28;20032;-83
2024/03/13 02:19:20;;;;;;;;;;;8.30;99.90;;;;;;2070684;28;19913;-86
2024/03/13 02:20:24;;;;;;;;;;;8.30;99.90;;;;;;2080763;28;20010;-85
2024/03/13 02:21:25;;;;;;;;;;;8.30;99.90;;;;;;2073442;28;19917;-85
2024/03/13 02:22:26;;;;;;;;;;;8.20;99.90;;;;;;2060625;28;19917;-85
2024/03/13 02:23:30;;;;;;;;;;;8.20;99.90;;;;;;2053327;28;20289;-87
2024/03/13 02:24:30;;;;;;;;;;;8.20;99.90;;;;;;2061922;28;19921;-87
2024/03/13 02:25:34;;;;;;;;;;;8.20;99.90;;;;;;2072518;28;19925;-86
2024/03/13 02:26:35;;;;;;;;;;;8.20;99.90;;;;;;2074337;28;19996;-87
2024/03/13 02:27:36;;;;;;;;;;;8.20;99.90;;;;;;2071159;28;19952;-86
2024/03/13 02:28:37;;;;;;;;;;;8.20;99.90;;;;;;2070080;28;20109;-88
2024/03/13 02:29:38;;;;;;;;;;;8.20;99.90;;;;;;2074403;28;19921;-87
2024/03/13 02:30:39;;;;;;;;;;;8.20;99.90;;;;;;2070776;28;19918;-87
2024/03/13 02:31:39;;;;;;;;;;;8.20;99.90;;;;;;2067307;28;20403;-87
2024/03/13 02:32:40;;;;;;;;;;;8.20;99.90;;;;;;2070325;28;19917;-87
2024/03/13 02:33:41;;;;;;;;;;;8.20;99.90;;;;;;2070263;28;20028;-87
2024/03/13 02:34:43;;;;;;;;;;;8.20;99.90;;;;;;2069832;28;19920;-87
2024/03/13 02:35:44;;;;;;;;;;;8.20;99.90;;;;;;2064661;28;19918;-86
2024/03/13 02:36:49;;;;;;;;;;;8.20;99.90;;;;;;2073209;28;20413;-86
2024/03/13 02:37:49;;;;;;;;;;;8.20;99.90;;;;;;2069852;28;20387;-86
2024/03/13 02:38:50;;;;;;;;;;;8.20;99.90;;;;;;2069369;28;19921;-86
2024/03/13 02:39:50;;;;;;;;;;;8.20;99.90;;;;;;2069789;28;20553;-87
2024/03/13 02:40:53;;;;;;;;;;;8.10;99.90;;;;;;2069284;28;19917;-86
2024/03/13 02:41:54;;;;;;;;;;;8.10;99.90;;;;;;2069491;28;20432;-87
2024/03/13 02:42:54;;;;;;;;;;;8.20;99.90;;;;;;2070174;28;19917;-86
2024/03/13 02:43:57;;;;;;;;;;;8.20;99.90;;;;;;2069091;28;19991;-86
2024/03/13 02:44:57;;;;;;;;;;;8.20;99.90;;;;;;2061546;28;19920;-86
2024/03/13 02:45:58;;;;;;;;;;;8.10;99.90;;;;;;2069050;28;20449;-86
2024/03/13 02:46:58;;;;;;;;;;;8.20;99.90;;;;;;2069278;28;19913;-87
2024/03/13 02:47:59;;;;;;;;;;;8.20;99.90;;;;;;2069331;28;19913;-86
2024/03/13 02:49:00;;;;;;;;;;;8.20;99.90;;;;;;2069127;28;20485;-86
2024/03/13 02:50:01;;;;;;;;;;;8.20;99.90;;;;;;2069577;28;19922;-86
2024/03/13 02:51:02;;;;;;;;;;;8.20;99.90;;;;;;2069207;28;20004;-86
2024/03/13 02:52:04;;;;;;;;;;;8.20;99.90;;;;;;2069200;28;19918;-87
2024/03/13 02:53:07;;;;;;;;;;;8.20;99.90;;;;;;2069537;28;20263;-87
2024/03/13 02:54:08;;;;;;;;;;;8.10;99.90;;;;;;2069261;28;19965;-86
2024/03/13 02:55:13;;;;;;;;;;;8.20;99.90;;;;;;2069311;28;19914;-86
2024/03/13 02:56:14;;;;;;;;;;;8.20;99.90;;;;;;2069455;28;19921;-86
2024/03/13 02:57:14;;;;;;;;;;;8.20;99.90;;;;;;2069157;28;20434;-87
2024/03/13 02:58:15;;;;;;;;;;;8.20;99.90;;;;;;2073134;28;19917;-86
2024/03/13 02:59:18;;;;;;;;;;;8.20;99.90;;;;;;2069338;28;19959;-85
2024/03/13 03:00:19;;;;;;;;;;;8.10;99.90;;;;;;2061498;28;19921;-86
2024/03/13 03:01:19;;;;;;;;;;;8.10;99.90;;;;;;2070048;28;19917;-87
2024/03/13 03:02:20;;;;;;;;;;;8.10;99.90;;;;;;2069892;28;19921;-86
2024/03/13 03:03:21;;;;;;;;;;;8.10;99.90;;;;;;2069929;28;19937;-85
2024/03/13 03:04:21;;;;;;;;;;;8.10;99.90;;;;;;2065585;28;20399;-86
2024/03/13 03:05:24;;;;;;;;;;;8.10;99.90;;;;;;2074548;28;19913;-86
2024/03/13 03:06:25;;;;;;;;;;;8.20;99.90;;;;;;2069581;28;19956;-86
2024/03/13 03:07:25;;;;;;;;;;;8.20;99.90;;;;;;2071533;28;19967;-85
2024/03/13 03:08:26;;;;;;;;;;;8.20;99.90;;;;;;2070347;28;20227;-87
2024/03/13 03:09:27;;;;;;;;;;;8.20;99.90;;;;;;2065075;28;19922;-87
2024/03/13 03:10:27;;;;;;;;;;;8.20;99.90;;;;;;2057882;28;19914;-79
2024/03/13 03:11:27;;;;;;;;;;;8.20;99.90;;;;;;2070124;28;19918;-86
2024/03/13 03:12:28;;;;;;;;;;;8.10;99.90;;;;;;2069920;28;19918;-87
2024/03/13 03:13:29;;;;;;;;;;;8.10;99.90;;;;;;2069944;28;19914;-87
2024/03/13 03:14:32;;;;;;;;;;;8.10;99.90;;;;;;2069918;28;20002;-87
2024/03/13 03:15:34;;;;;;;;;;;8.10;99.90;;;;;;2070494;28;19917;-87
2024/03/13 03:16:35;;;;;;;;;;;8.10;99.90;;;;;;2069683;28;20127;-88
2024/03/13 03:17:36;;;;;;;;;;;8.00;99.90;;;;;;2070229;28;20288;-87
2024/03/13 03:18:36;;;;;;;;;;;8.00;99.90;;;;;;2066643;28;19913;-87
2024/03/13 03:19:38;;;;;;;;;;;8.10;99.90;;;;;;2065183;28;19913;-87
2024/03/13 03:20:40;;;;;;;;;;;8.10;99.90;;;;;;2067158;28;19917;-86
2024/03/13 03:21:40;;;;;;;;;;;8.10;99.90;;;;;;2073411;28;19927;-86
2024/03/13 03:22:40;;;;;;;;;;;8.10;99.90;;;;;;2068564;28;19936;-86
2024/03/13 03:23:41;;;;;;;;;;;8.10;99.90;;;;;;2060351;28;19918;-84
2024/03/13 03:24:41;;;;;;;;;;;8.00;99.90;;;;;;2068875;28;20419;-87
2024/03/13 03:25:42;;;;;;;;;;;8.10;99.90;;;;;;2069440;28;19921;-87
2024/03/13 03:26:42;;;;;;;;;;;8.00;99.90;;;;;;2077352;28;19917;-87
2024/03/13 03:27:43;;;;;;;;;;;8.00;99.90;;;;;;2069659;28;19917;-87
2024/03/13 03:28:44;;;;;;;;;;;8.10;99.90;;;;;;2062684;28;19997;-86
2024/03/13 03:29:45;;;;;;;;;;;8.00;99.90;;;;;;2068627;28;19918;-86
2024/03/13 03:30:48;;;;;;;;;;;8.00;99.90;;;;;;2069805;28;20463;-84
2024/03/13 03:31:49;;;;;;;;;;;8.00;99.90;;;;;;2067578;28;19917;-86
2024/03/13 03:32:49;;;;;;;;;;;8.10;99.90;;;;;;2068124;28;20012;-86
2024/03/13 03:33:51;;;;;;;;;;;8.10;99.90;;;;;;2068630;28;19929;-85
2024/03/13 03:34:52;;;;;;;;;;;8.20;99.90;;;;;;2068686;28;20278;-85
2024/03/13 03:35:52;;;;;;;;;;;8.10;99.90;;;;;;2070262;28;19918;-83
2024/03/13 03:36:53;;;;;;;;;;;8.20;99.90;;;;;;2069394;28;19976;-85
2024/03/13 03:37:53;;;;;;;;;;;8.10;99.90;;;;;;2068805;28;20196;-85
2024/03/13 03:38:54;;;;;;;;;;;8.10;99.90;;;;;;2068988;28;19924;-85
2024/03/13 03:39:54;;;;;;;;;;;8.10;99.90;;;;;;2069663;28;20015;-86
2024/03/13 03:40:55;;;;;;;;;;;8.00;99.90;;;;;;2069226;28;20415;-85
2024/03/13 03:41:57;;;;;;;;;;;8.00;99.90;;;;;;2076380;28;19940;-85
2024/03/13 03:42:58;;;;;;;;;;;7.90;99.90;;;;;;2069809;28;19913;-85
2024/03/13 03:43:59;;;;;;;;;;;7.90;99.90;;;;;;2068886;28;20056;-85
2024/03/13 03:45:00;;;;;;;;;;;7.90;99.90;;;;;;2068950;28;19956;-85
2024/03/13 03:46:00;;;;;;;;;;;7.90;99.90;;;;;;2068551;28;19921;-85
2024/03/13 03:47:01;;;;;;;;;;;7.90;99.90;;;;;;2068801;28;19952;-85
2024/03/13 03:48:01;;;;;;;;;;;7.90;99.90;;;;;;2068387;28;20479;-85
2024/03/13 03:49:02;;;;;;;;;;;7.90;99.90;;;;;;2068417;28;20260;-84
2024/03/13 03:50:02;;;;;;;;;;;7.90;99.90;;;;;;2068840;28;20008;-84
2024/03/13 03:51:04;;;;;;;;;;;7.90;99.90;;;;;;2072744;28;20839;-84
2024/03/13 03:52:05;;;;;;;;;;;7.90;99.90;;;;;;2069435;28;20307;-84
2024/03/13 03:53:05;;;;;;;;;;;7.90;99.90;;;;;;2069304;28;19913;-84
2024/03/13 03:54:06;;;;;;;;;;;7.90;99.90;;;;;;2073214;28;19913;-84
2024/03/13 03:55:07;;;;;;;;;;;7.90;99.90;;;;;;2068925;28;19948;-83
2024/03/13 03:56:07;;;;;;;;;;;7.80;99.90;;;;;;2069547;28;19913;-83
2024/03/13 03:57:09;;;;;;;;;;;7.90;99.90;;;;;;2069473;28;19922;-85
2024/03/13 03:58:10;;;;;;;;;;;7.90;99.90;;;;;;2069271;28;20461;-84
2024/03/13 03:59:10;;;;;;;;;;;7.80;99.90;;;;;;2073648;28;19913;-85
2024/03/13 04:00:12;;;;;;;;;;;7.80;99.90;;;;;;2069136;28;19918;-84
2024/03/13 04:01:12;;;;;;;;;;;7.80;99.90;;;;;;2068874;28;19921;-87
2024/03/13 04:02:16;;;;;;;;;;;7.80;99.90;;;;;;2068877;28;19953;-86
2024/03/13 04:03:16;;;;;;;;;;;7.80;99.90;;;;;;2069378;28;19933;-86
2024/03/13 04:04:17;;;;;;;;;;;7.70;99.90;;;;;;2069112;28;20383;-85
2024/03/13 04:05:18;;;;;;;;;;;7.70;99.90;;;;;;2068717;28;20074;-85
2024/03/13 04:06:18;;;;;;;;;;;7.70;99.90;;;;;;2068465;28;20418;-85
2024/03/13 04:07:19;;;;;;;;;;;7.70;99.90;;;;;;2068650;28;20053;-85
2024/03/13 04:08:20;;;;;;;;;;;7.70;99.90;;;;;;2068236;28;20103;-84
2024/03/13 04:09:20;;;;;;;;;;;7.60;99.90;;;;;;2069303;28;19924;-86
2024/03/13 04:10:21;;;;;;;;;;;7.60;99.90;;;;;;2069507;28;19925;-85
2024/03/13 04:11:21;;;;;;;;;;;7.60;99.90;;;;;;2069431;28;19913;-86
2024/03/13 04:12:22;;;;;;;;;;;7.50;99.90;;;;;;2068691;28;20399;-85
2024/03/13 04:13:22;;;;;;;;;;;7.60;99.90;;;;;;2068163;28;20008;-82
2024/03/13 04:14:23;;;;;;;;;;;7.50;99.90;;;;;;2067963;28;19925;-83
2024/03/13 04:15:26;;;;;;;;;;;7.50;99.90;;;;;;2067645;28;20497;-83
2024/03/13 04:16:27;;;;;;;;;;;7.50;99.90;;;;;;2068013;28;19966;-83
2024/03/13 04:17:27;;;;;;;;;;;7.50;99.90;;;;;;2067914;28;19912;-83
2024/03/13 04:18:28;;;;;;;;;;;7.40;99.90;;;;;;2067567;28;19921;-83
2024/03/13 04:19:28;;;;;;;;;;;7.50;99.90;;;;;;2075779;28;19976;-82
2024/03/13 04:20:29;;;;;;;;;;;7.40;99.90;;;;;;2067159;28;19941;-83
2024/03/13 04:21:29;;;;;;;;;;;7.40;99.90;;;;;;2067842;28;19933;-83
2024/03/13 04:22:31;;;;;;;;;;;7.40;99.90;;;;;;2067775;28;19925;-82
2024/03/13 04:23:32;;;;;;;;;;;7.30;99.90;;;;;;2059451;28;19916;-83
2024/03/13 04:24:33;;;;;;;;;;;7.30;99.90;;;;;;2048284;28;19964;-83
2024/03/13 04:25:36;;;;;;;;;;;7.20;99.90;;;;;;2067532;28;20024;-84
2024/03/13 04:26:39;;;;;;;;;;;7.20;99.90;;;;;;2070417;28;19924;-88
2024/03/13 04:27:39;;;;;;;;;;;7.20;99.90;;;;;;2074099;28;20246;-88
2024/03/13 04:28:43;;;;;;;;;;;7.20;99.90;;;;;;2067289;28;19914;-88
2024/03/13 04:29:43;;;;;;;;;;;7.20;99.90;;;;;;2071854;28;19914;-88
2024/03/13 04:30:46;;;;;;;;;;;7.10;99.90;;;;;;2061860;28;20359;-80
2024/03/13 04:31:47;;;;;;;;;;;7.10;99.90;;;;;;2067492;28;19914;-79
2024/03/13 04:32:47;;;;;;;;;;;7.10;99.90;;;;;;2070702;28;19921;-79
2024/03/13 04:33:48;;;;;;;;;;;7.10;99.90;;;;;;2070752;28;20292;-79
2024/03/13 04:34:50;;;;;;;;;;;7.10;99.90;;;;;;2070809;28;19921;-79
2024/03/13 04:35:51;;;;;;;;;;;7.20;99.90;;;;;;2072420;28;20443;-79
2024/03/13 04:36:51;;;;;;;;;;;7.10;99.90;;;;;;2073517;28;19918;-80
2024/03/13 04:37:52;;;;;;;;;;;7.10;99.90;;;;;;2070577;28;19972;-80
2024/03/13 04:38:52;;;;;;;;;;;7.10;99.90;;;;;;2060652;28;19957;-80
2024/03/13 04:39:53;;;;;;;;;;;7.10;99.90;;;;;;2069250;28;19913;-80
2024/03/13 04:40:54;;;;;;;;;;;7.10;99.90;;;;;;2070376;28;19909;-79
2024/03/13 04:41:54;;;;;;;;;;;7.10;99.90;;;;;;2070500;28;19921;-80
2024/03/13 04:42:57;;;;;;;;;;;7.10;99.90;;;;;;2073557;28;19961;-80
2024/03/13 04:43:57;;;;;;;;;;;7.10;99.90;;;;;;2069149;28;19921;-81
2024/03/13 04:44:59;;;;;;;;;;;7.10;99.90;;;;;;2061463;28;19953;-80
2024/03/13 04:46:00;;;;;;;;;;;7.10;99.90;;;;;;2061457;28;19929;-80
2024/03/13 04:47:00;;;;;;;;;;;7.10;99.90;;;;;;2065293;28;19917;-80
2024/03/13 04:48:01;;;;;;;;;;;7.00;99.90;;;;;;2070478;28;19987;-80
2024/03/13 04:49:03;;;;;;;;;;;7.00;99.90;;;;;;2080507;28;19945;-79
2024/03/13 04:50:04;;;;;;;;;;;7.10;99.90;;;;;;2063107;28;19917;-80
2024/03/13 04:51:05;;;;;;;;;;;7.10;99.90;;;;;;2060810;28;20005;-80
2024/03/13 04:52:05;;;;;;;;;;;7.10;99.90;;;;;;2069558;28;19924;-80
2024/03/13 04:53:06;;;;;;;;;;;7.10;99.90;;;;;;2061420;28;19918;-78
2024/03/13 04:54:07;;;;;;;;;;;7.00;99.90;;;;;;2063168;28;19914;-80
2024/03/13 04:55:07;;;;;;;;;;;7.00;99.90;;;;;;2068347;28;19910;-80
2024/03/13 04:56:07;;;;;;;;;;;7.00;99.90;;;;;;2053397;28;20074;-79
2024/03/13 04:57:08;;;;;;;;;;;7.00;99.90;;;;;;2060672;28;19921;-79
2024/03/13 04:58:08;;;;;;;;;;;7.00;99.90;;;;;;2060961;28;19918;-79
2024/03/13 04:59:09;;;;;;;;;;;7.00;99.90;;;;;;2068910;28;20490;-79
2024/03/13 05:00:10;;;;;;;;;;;7.00;99.90;;;;;;2074117;28;19964;-79
2024/03/13 05:01:17;;;;;;;;;;;7.00;99.90;;;;;;2055880;28;19950;-78
2024/03/13 05:02:17;;;;;;;;;;;6.90;99.90;;;;;;2057283;28;19973;-79
2024/03/13 05:03:19;;;;;;;;;;;6.90;99.90;;;;;;2065540;28;19925;-79
2024/03/13 05:04:20;;;;;;;;;;;6.90;99.90;;;;;;2073408;28;19917;-79
2024/03/13 05:05:20;;;;;;;;;;;6.90;99.90;;;;;;2072837;28;19975;-81
2024/03/13 05:06:21;;;;;;;;;;;6.90;99.90;;;;;;2072265;28;19924;-80
2024/03/13 05:07:22;;;;;;;;;;;6.90;99.90;;;;;;2074948;28;20275;-80
2024/03/13 05:08:22;;;;;;;;;;;7.00;99.90;;;;;;2063223;28;19925;-81
2024/03/13 05:09:23;;;;;;;;;;;6.90;99.90;;;;;;2061990;28;20020;-80
2024/03/13 05:10:27;;;;;;;;;;;6.90;99.90;;;;;;2062822;28;20266;-81
2024/03/13 05:11:28;;;;;;;;;;;6.80;99.90;;;;;;2071751;28;19928;-80
2024/03/13 05:12:34;;;;;;;;;;;6.80;99.90;;;;;;2072462;28;20024;-80
2024/03/13 05:13:36;;;;;;;;;;;6.70;99.90;;;;;;2067182;28;20015;-76
2024/03/13 05:14:36;;;;;;;;;;;6.70;99.90;;;;;;2055175;28;19914;-81
2024/03/13 05:15:37;;;;;;;;;;;6.70;99.90;;;;;;2061893;28;19920;-82
2024/03/13 05:16:41;;;;;;;;;;;6.70;99.90;;;;;;2055534;28;19941;-82
2024/03/13 05:17:42;;;;;;;;;;;6.70;99.90;;;;;;2057727;28;19949;-79
2024/03/13 05:18:43;;;;;;;;;;;6.60;99.90;;;;;;2053960;28;19937;-80
2024/03/13 05:19:43;;;;;;;;;;;6.70;99.90;;;;;;2053191;28;19942;-80
2024/03/13 05:20:44;;;;;;;;;;;6.60;99.90;;;;;;2053414;28;19918;-80
2024/03/13 05:21:44;;;;;;;;;;;6.60;99.90;;;;;;2045183;28;19926;-78
2024/03/13 05:22:46;;;;;;;;;;;6.60;99.90;;;;;;2061356;28;19920;-79
2024/03/13 05:23:47;;;;;;;;;;;6.60;99.90;;;;;;2061124;28;19910;-79
2024/03/13 05:24:49;;;;;;;;;;;6.60;99.90;;;;;;2051451;28;19918;-80
2024/03/13 05:25:52;;;;;;;;;;;6.60;99.90;;;;;;2061084;28;19918;-80
2024/03/13 05:26:52;;;;;;;;;;;6.60;99.90;;;;;;2055854;28;20447;-79
2024/03/13 05:27:53;;;;;;;;;;;6.60;99.90;;;;;;2062756;28;19945;-79
2024/03/13 05:28:54;;;;;;;;;;;6.60;99.90;;;;;;2053843;28;20009;-78
2024/03/13 05:29:56;;;;;;;;;;;6.50;99.90;;;;;;2060397;28;19918;-79
2024/03/13 05:30:57;;;;;;;;;;;6.50;99.90;;;;;;2069768;28;19913;-79
2024/03/13 05:32:05;;;;;;;;;;;6.50;99.90;;;;;;2050579;28;20017;-78
2024/03/13 05:33:07;;;;;;;;;;;6.50;99.90;;;;;;2061885;28;19917;-79
2024/03/13 05:34:08;;;;;;;;;;;6.50;99.90;;;;;;2069678;28;19984;-79
2024/03/13 05:35:08;;;;;;;;;;;6.50;99.90;;;;;;2068495;28;20004;-79
2024/03/13 05:36:11;;;;;;;;;;;6.50;99.90;;;;;;2069768;28;19924;-80
2024/03/13 05:37:12;;;;;;;;;;;6.50;99.90;;;;;;2070026;28;19925;-79
2024/03/13 05:38:12;;;;;;;;;;;6.50;99.90;;;;;;2069878;28;19914;-80
2024/03/13 05:39:13;;;;;;;;;;;6.50;99.90;;;;;;2070034;28;19967;-79
2024/03/13 05:40:16;;;;;;;;;;;6.50;99.90;;;;;;2069146;28;19939;-82
2024/03/13 05:41:19;;;;;;;;;;;6.50;99.90;;;;;;2068048;28;20186;-79
2024/03/13 05:42:21;;;;;;;;;;;6.50;99.90;;;;;;2059545;28;19925;-80
2024/03/13 05:43:21;;;;;;;;;;;6.40;99.90;;;;;;2058935;28;19914;-81
2024/03/13 05:44:22;;;;;;;;;;;6.50;99.90;;;;;;2068023;28;19929;-80
2024/03/13 05:45:22;;;;;;;;;;;6.50;99.90;;;;;;2067296;28;19924;-81
2024/03/13 05:46:23;;;;;;;;;;;6.40;99.90;;;;;;2064603;28;20580;-80
2024/03/13 05:47:24;;;;;;;;;;;6.40;99.90;;;;;;2068464;28;19952;-80
2024/03/13 05:48:24;;;;;;;;;;;6.40;99.90;;;;;;2067661;28;19928;-80
2024/03/13 05:49:25;;;;;;;;;;;6.40;99.90;;;;;;2068484;28;19918;-81
2024/03/13 05:50:26;;;;;;;;;;;6.40;99.90;;;;;;2066942;28;20383;-79
2024/03/13 05:51:26;;;;;;;;;;;6.40;99.90;;;;;;2067616;28;20115;-80
2024/03/13 05:52:27;;;;;;;;;;;6.40;99.90;;;;;;2067883;28;20295;-80
2024/03/13 05:53:27;;;;;;;;;;;6.40;99.90;;;;;;2066449;28;19932;-80
2024/03/13 05:54:28;;;;;;;;;;;6.40;99.90;;;;;;2066331;28;20331;-80
2024/03/13 05:55:28;;;;;;;;;;;6.40;99.90;;;;;;2066677;28;20119;-80
2024/03/13 05:56:29;;;;;;;;;;;6.50;99.90;;;;;;2068432;28;19921;-81
2024/03/13 05:57:30;;;;;;;;;;;6.50;99.90;;;;;;2058500;28;19979;-79
2024/03/13 05:58:30;;;;;;;;;;;6.50;99.90;;;;;;2059532;28;20287;-79
2024/03/13 05:59:30;;;;;;;;;;;6.50;99.90;;;;;;2066942;28;19937;-80
2024/03/13 06:00:31;;;;;;;;;;;6.50;99.90;;;;;;2067632;28;20323;-79
2024/03/13 06:01:32;;;;;;;;;;;6.50;99.90;;;;;;2067481;28;19936;-80
2024/03/13 06:02:33;;;;;;;;;;;6.50;99.90;;;;;;2068302;28;19918;-80
2024/03/13 06:03:35;;;;;;;;;;;6.50;99.90;;;;;;2067943;28;20356;-77
2024/03/13 06:04:36;;;;;;;;;;;6.50;99.90;;;;;;2068183;28;19926;-80
2024/03/13 06:05:37;;;;;;;;;;;6.50;99.90;;;;;;2067560;28;20372;-80
2024/03/13 06:06:40;;;;;;;;;;;6.60;99.90;;;;;;2067664;28;19913;-81
2024/03/13 06:07:41;;;;;;;;;;;6.60;99.90;;;;;;2067543;28;19928;-79
2024/03/13 06:08:41;;;;;;;;;;;6.60;99.90;;;;;;2069025;28;20291;-75
2024/03/13 06:09:42;;;;;;;;;;;6.60;99.90;;;;;;2068794;28;19913;-78
2024/03/13 06:10:42;;;;;;;;;;;6.60;99.90;;;;;;2068549;28;19913;-78
2024/03/13 06:11:43;;;;;;;;;;;6.70;99.90;;;;;;2069102;28;19936;-78
2024/03/13 06:12:43;;;;;;;;;;;6.70;99.90;;;;;;2067980;28;19965;-77
2024/03/13 06:13:44;;;;;;;;;;;6.70;99.90;;;;;;2060622;28;19914;-79
2024/03/13 06:14:46;;;;;;;;;;;6.80;99.90;;;;;;2062191;28;19917;-77
2024/03/13 06:15:57;;;;;;;;;;;6.80;99.90;;;;;;2055692;28;19914;-78
2024/03/13 06:17:12;;;;;;;;;;;6.70;99.90;;;;;;2074317;28;19913;-79
2024/03/13 06:18:20;;;;;;;;;;;6.80;99.90;;;;;;2063645;28;20399;-79
2024/03/13 06:19:26;;;;;;;;;;;6.80;99.90;;;;;;2056865;28;20363;-79